createdAt,value
2023-03-07T00:01:16.869Z,35.25
2023-03-07T00:03:50.053Z,37.78
2023-03-07T00:06:36.939Z,42.42
2023-03-07T00:09:16.877Z,41.47
2023-03-07T00:12:03.845Z,42.05
2023-03-07T00:14:36.967Z,51.30
2023-03-07T00:17:23.850Z,40.63
2023-03-07T00:19:56.983Z,37.55
2023-03-07T00:22:43.849Z,34.92
2023-03-07T00:25:17.938Z,37.90
2023-03-07T00:28:04.898Z,39.00
2023-03-07T00:30:37.943Z,35.97
2023-03-07T00:33:24.884Z,46.05
2023-03-07T00:36:09.959Z,33.67
2023-03-07T00:38:57.895Z,34.20
2023-03-07T00:41:34.021Z,36.30
2023-03-07T00:44:21.846Z,33.83
2023-03-07T00:46:54.962Z,34.95
2023-03-07T00:49:41.892Z,33.90
2023-03-07T00:52:15.056Z,38.45
2023-03-07T00:55:01.969Z,35.13
2023-03-07T00:57:34.971Z,34.63
2023-03-07T01:00:21.867Z,36.17
2023-03-07T01:03:03.861Z,33.95
2023-03-07T01:05:57.880Z,37.60
2023-03-07T01:08:44.880Z,31.38
2023-03-07T01:11:19.038Z,32.03
2023-03-07T01:14:07.933Z,37.92
2023-03-07T01:16:44.206Z,38.97
2023-03-07T01:19:30.885Z,34.40
2023-03-07T01:22:03.976Z,40.13
2023-03-07T01:24:50.893Z,34.75
2023-03-07T01:27:23.984Z,35.75
2023-03-07T01:30:12.861Z,31.52
2023-03-07T01:32:52.913Z,30.45
2023-03-07T01:35:45.872Z,35.08
2023-03-07T01:38:19.012Z,46.55
2023-03-07T01:41:08.885Z,43.42
2023-03-07T01:43:42.990Z,39.88
2023-03-07T01:46:56.932Z,27.92
2023-03-07T01:49:47.901Z,27.88
2023-03-07T01:52:55.005Z,75.40
2023-03-07T01:55:43.895Z,62.80
2023-03-07T01:58:20.012Z,49.58
2023-03-07T02:01:06.959Z,42.03
2023-03-07T02:03:49.993Z,40.38
2023-03-07T02:06:41.947Z,45.35
2023-03-07T02:09:27.876Z,38.15
2023-03-07T02:12:08.897Z,34.53
2023-03-07T02:14:53.895Z,41.88
2023-03-07T02:17:27.982Z,40.25
2023-03-07T02:20:56.884Z,41.88
2023-03-07T02:24:13.998Z,47.65
2023-03-07T02:27:00.890Z,37.67
2023-03-07T02:29:40.910Z,41.45
2023-03-07T02:32:34.961Z,44.33
2023-03-07T02:35:37.979Z,43.78
2023-03-07T02:38:31.903Z,40.00
2023-03-07T02:41:19.881Z,42.97
2023-03-07T02:43:59.933Z,43.13
2023-03-07T02:46:46.889Z,35.70
2023-03-07T02:49:27.897Z,41.95
2023-03-07T02:52:21.903Z,38.35
2023-03-07T02:55:15.896Z,35.22
2023-03-07T02:58:02.922Z,36.67
2023-03-07T03:00:37.103Z,36.95
2023-03-07T03:03:23.911Z,34.72
2023-03-07T03:06:03.943Z,34.50
2023-03-07T03:08:50.932Z,34.10
2023-03-07T03:11:30.902Z,38.97
2023-03-07T03:14:24.932Z,34.90
2023-03-07T03:17:11.942Z,34.47
2023-03-07T03:19:45.020Z,32.05
2023-03-07T03:22:31.915Z,35.80
2023-03-07T03:25:05.010Z,28.50
2023-03-07T03:27:51.909Z,32.08
2023-03-07T03:30:26.721Z,29.33
2023-03-07T03:33:13.916Z,35.88
2023-03-07T03:35:47.092Z,30.52
2023-03-07T03:38:33.926Z,34.47
2023-03-07T03:41:11.038Z,34.45
2023-03-07T03:43:58.017Z,34.97
2023-03-07T03:46:31.035Z,34.53
2023-03-07T03:49:22.935Z,31.92
2023-03-07T03:51:56.038Z,37.42
2023-03-07T03:54:42.961Z,31.95
2023-03-07T03:57:18.042Z,29.67
2023-03-07T04:00:04.911Z,34.65
2023-03-07T04:02:38.214Z,32.35
2023-03-07T04:05:24.928Z,31.08
2023-03-07T04:08:04.942Z,30.23
2023-03-07T04:10:58.989Z,32.13
2023-03-07T04:13:45.956Z,31.85
2023-03-07T04:16:19.157Z,33.20
2023-03-07T04:19:05.944Z,29.50
2023-03-07T04:21:39.754Z,33.33
2023-03-07T04:24:26.931Z,34.05
2023-03-07T04:27:00.135Z,37.47
2023-03-07T04:29:46.926Z,34.55
2023-03-07T04:32:20.177Z,36.47
2023-03-07T04:35:06.981Z,33.13
2023-03-07T04:37:46.935Z,31.35
2023-03-07T04:40:41.061Z,35.10
2023-03-07T04:43:34.946Z,33.45
2023-03-07T04:46:15.990Z,36.97
2023-03-07T04:48:55.959Z,33.95
2023-03-07T04:51:30.045Z,39.72
2023-03-07T04:54:16.937Z,33.25
2023-03-07T04:56:50.107Z,29.55
2023-03-07T04:59:37.087Z,30.88
2023-03-07T05:02:10.065Z,27.25
2023-03-07T05:04:56.974Z,34.78
2023-03-07T05:07:37.068Z,40.50
2023-03-07T05:10:23.927Z,32.00
2023-03-07T05:12:57.064Z,38.13
2023-03-07T05:15:44.055Z,33.70
2023-03-07T05:18:24.013Z,31.42
2023-03-07T05:21:10.952Z,29.75
2023-03-07T05:23:44.120Z,28.23
2023-03-07T05:26:30.959Z,37.28
2023-03-07T05:29:04.547Z,33.10
2023-03-07T05:31:50.965Z,35.22
2023-03-07T05:34:24.121Z,40.03
2023-03-07T05:37:10.942Z,50.67
2023-03-07T05:39:44.051Z,51.78
2023-03-07T05:42:30.957Z,43.42
2023-03-07T05:45:04.139Z,44.85
2023-03-07T05:47:50.973Z,45.95
2023-03-07T05:50:31.957Z,44.75
2023-03-07T05:53:25.977Z,42.03
2023-03-07T05:56:12.992Z,48.55
2023-03-07T05:58:52.975Z,41.63
2023-03-07T06:01:47.968Z,37.92
2023-03-07T06:04:42.006Z,34.65
2023-03-07T06:07:28.977Z,35.63
2023-03-07T06:10:08.953Z,37.45
2023-03-07T06:13:06.962Z,36.40
2023-03-07T06:15:57.973Z,27.20
2023-03-07T06:18:32.067Z,33.83
2023-03-07T06:21:22.963Z,31.88
2023-03-07T06:24:02.972Z,30.92
2023-03-07T06:26:56.987Z,40.17
2023-03-07T06:29:50.979Z,37.65
2023-03-07T06:32:45.976Z,38.08
2023-03-07T06:35:32.997Z,32.42
2023-03-07T06:38:13.003Z,31.08
2023-03-07T06:41:09.978Z,32.50
2023-03-07T06:43:59.974Z,32.50
2023-03-07T06:46:33.093Z,31.90
2023-03-07T06:49:19.982Z,31.20
2023-03-07T06:51:53.121Z,34.13
2023-03-07T06:54:39.967Z,38.72
2023-03-07T06:57:13.080Z,32.33
2023-03-07T06:59:59.983Z,34.95
2023-03-07T07:02:33.219Z,36.03
2023-03-07T07:05:19.992Z,36.92
2023-03-07T07:07:53.112Z,36.88
2023-03-07T07:10:40.013Z,33.42
2023-03-07T07:13:13.084Z,36.75
2023-03-07T07:15:59.984Z,46.05
2023-03-07T07:18:33.089Z,44.28
2023-03-07T07:21:20.011Z,37.20
2023-03-07T07:23:53.106Z,41.17
2023-03-07T07:26:39.980Z,41.00
2023-03-07T07:29:13.660Z,39.88
2023-03-07T07:32:00.046Z,35.63
2023-03-07T07:34:33.128Z,32.63
2023-03-07T07:37:20.034Z,33.10
2023-03-07T07:39:53.074Z,27.27
2023-03-07T07:42:40.012Z,27.65
2023-03-07T07:45:14.096Z,34.55
2023-03-07T07:48:01.000Z,35.45
2023-03-07T07:50:34.152Z,33.15
2023-03-07T07:53:24.000Z,34.42
2023-03-07T07:56:04.024Z,40.63
2023-03-07T07:58:51.014Z,39.88
2023-03-07T08:01:37.046Z,35.20
2023-03-07T08:04:31.015Z,28.27
2023-03-07T08:07:25.010Z,30.02
2023-03-07T08:10:12.037Z,24.85
2023-03-07T08:12:52.005Z,26.45
2023-03-07T08:15:46.077Z,29.45
2023-03-07T08:18:33.020Z,27.17
2023-03-07T08:21:06.206Z,28.23
2023-03-07T08:23:53.047Z,27.45
2023-03-07T08:26:26.727Z,27.20
2023-03-07T08:29:13.032Z,30.70
2023-03-07T08:31:51.827Z,27.70
2023-03-07T08:34:39.094Z,25.60
2023-03-07T08:37:12.193Z,26.48
2023-03-07T08:39:59.007Z,32.63
2023-03-07T08:42:32.185Z,30.27
2023-03-07T08:45:19.026Z,29.40
2023-03-07T08:47:52.137Z,30.60
2023-03-07T08:50:39.030Z,28.40
2023-03-07T08:53:19.013Z,26.63
2023-03-07T08:56:13.052Z,25.92
2023-03-07T08:59:07.024Z,27.38
2023-03-07T09:01:54.126Z,27.23
2023-03-07T09:04:27.173Z,26.75
2023-03-07T09:07:14.038Z,30.40
2023-03-07T09:09:54.027Z,29.70
2023-03-07T09:12:48.030Z,34.63
2023-03-07T09:15:42.037Z,33.53
2023-03-07T09:18:36.020Z,25.13
2023-03-07T09:21:30.035Z,24.58
2023-03-07T09:24:24.056Z,27.60
2023-03-07T09:27:18.059Z,34.00
2023-03-07T09:30:12.053Z,27.88
2023-03-07T09:33:06.075Z,28.20
2023-03-07T09:36:00.120Z,29.98
2023-03-07T09:38:57.754Z,32.85
2023-03-07T09:42:20.056Z,32.60
2023-03-07T09:45:26.066Z,34.63
2023-03-07T09:48:11.143Z,28.92
2023-03-07T09:51:11.501Z,29.33
2023-03-07T09:54:15.070Z,32.38
2023-03-07T09:57:15.340Z,26.90
2023-03-07T10:00:07.136Z,35.50
2023-03-07T10:02:56.175Z,31.35
2023-03-07T10:05:51.060Z,30.00
2023-03-07T10:08:40.062Z,35.83
2023-03-07T10:12:05.002Z,30.83
2023-03-07T10:15:29.083Z,23.67
2023-03-07T10:18:25.069Z,28.10
2023-03-07T10:21:26.062Z,24.83
2023-03-07T10:24:48.144Z,27.85
2023-03-07T10:27:23.164Z,34.40
2023-03-07T10:30:22.052Z,27.30
2023-03-07T10:33:09.072Z,28.33
2023-03-07T10:36:05.108Z,24.27
2023-03-07T10:38:59.090Z,24.48
2023-03-07T10:41:46.071Z,26.55
2023-03-07T10:44:25.221Z,27.52
2023-03-07T10:47:12.068Z,26.70
2023-03-07T10:49:53.672Z,26.20
2023-03-07T10:52:57.084Z,24.65
2023-03-07T10:55:50.070Z,24.40
2023-03-07T10:58:37.086Z,26.77
2023-03-07T11:01:34.125Z,27.88
2023-03-07T11:04:40.105Z,28.67
2023-03-07T11:07:50.161Z,51.47
2023-03-07T11:10:53.095Z,27.15
2023-03-07T11:13:41.063Z,23.88
2023-03-07T11:16:27.270Z,25.98
2023-03-07T11:19:41.085Z,26.80
2023-03-07T11:22:49.055Z,25.08
2023-03-07T11:25:50.085Z,25.50
2023-03-07T11:28:42.102Z,20.80
2023-03-07T11:31:50.081Z,24.33
2023-03-07T11:35:19.063Z,24.38
2023-03-07T11:38:27.104Z,24.90
2023-03-07T11:41:21.111Z,27.30
2023-03-07T11:44:54.118Z,24.08
2023-03-07T11:48:29.110Z,22.45
2023-03-07T11:51:04.709Z,24.05
2023-03-07T11:54:13.087Z,27.45
2023-03-07T11:57:00.156Z,25.40
2023-03-07T12:00:32.106Z,24.52
2023-03-07T12:03:31.100Z,23.92
2023-03-07T12:06:39.096Z,22.90
2023-03-07T12:09:36.155Z,23.02
2023-03-07T12:12:34.141Z,25.25
2023-03-07T12:15:43.118Z,27.50
2023-03-07T12:18:56.118Z,24.75
2023-03-07T12:22:02.132Z,25.95
2023-03-07T12:24:50.203Z,27.02
2023-03-07T12:27:52.120Z,27.10
2023-03-07T12:30:55.118Z,26.20
2023-03-07T12:33:44.113Z,25.85
2023-03-07T12:36:27.309Z,29.02
2023-03-07T12:39:38.137Z,24.95
2023-03-07T12:42:35.238Z,28.80
2023-03-07T12:45:30.142Z,26.27
2023-03-07T12:48:21.125Z,25.23
2023-03-07T12:51:29.237Z,28.05
2023-03-07T12:54:31.145Z,23.27
2023-03-07T12:57:48.110Z,27.73
2023-03-07T13:00:36.115Z,21.20
2023-03-07T13:03:10.219Z,23.20
2023-03-07T13:05:58.173Z,25.63
2023-03-07T13:08:32.321Z,29.35
2023-03-07T13:11:34.350Z,21.00
2023-03-07T13:14:10.259Z,23.30
2023-03-07T13:17:01.124Z,24.55
2023-03-07T13:19:50.107Z,25.88
2023-03-07T13:22:44.136Z,28.88
2023-03-07T13:25:33.155Z,23.70
2023-03-07T13:28:08.228Z,25.95
2023-03-07T13:31:20.354Z,26.65
2023-03-07T13:33:53.354Z,22.27
2023-03-07T13:36:43.210Z,22.25
2023-03-07T13:40:15.166Z,24.63
2023-03-07T13:43:09.162Z,25.33
2023-03-07T13:46:17.177Z,28.52
2023-03-07T13:49:04.175Z,25.92
2023-03-07T13:51:44.268Z,29.13
2023-03-07T13:54:38.150Z,28.05
2023-03-07T13:57:30.041Z,27.73
2023-03-07T14:00:04.823Z,26.52
2023-03-07T14:02:52.256Z,30.45
2023-03-07T14:05:26.214Z,30.38
2023-03-07T14:08:21.148Z,22.17
2023-03-07T14:10:55.295Z,23.50
2023-03-07T14:14:16.175Z,29.33
2023-03-07T14:16:56.147Z,27.80
2023-03-07T14:19:56.153Z,27.90
2023-03-07T14:22:58.164Z,27.52
2023-03-07T14:25:41.290Z,23.52
2023-03-07T14:28:34.157Z,37.78
2023-03-07T14:31:10.337Z,30.95
2023-03-07T14:33:58.174Z,32.35
2023-03-07T14:36:36.313Z,30.17
2023-03-07T14:39:23.187Z,28.95
2023-03-07T14:42:03.257Z,25.90
2023-03-07T14:45:17.174Z,24.38
2023-03-07T14:48:14.250Z,31.50
2023-03-07T14:51:01.152Z,28.42
2023-03-07T14:53:38.273Z,46.15
2023-03-07T14:56:34.167Z,116.10
2023-03-07T14:59:27.969Z,79.50
2023-03-07T15:02:32.160Z,87.35
2023-03-07T15:05:25.188Z,50.88
2023-03-07T15:08:05.163Z,47.22
2023-03-07T15:10:56.149Z,45.03
2023-03-07T15:13:48.204Z,22.42
2023-03-07T15:16:48.146Z,22.10
2023-03-07T15:19:49.186Z,22.98
2023-03-07T15:22:39.232Z,25.65
2023-03-07T15:25:35.171Z,22.25
2023-03-07T15:28:27.185Z,17.95
2023-03-07T15:31:00.320Z,20.15
2023-03-07T15:33:47.191Z,22.33
2023-03-07T15:36:20.756Z,19.88
2023-03-07T15:39:33.214Z,21.92
2023-03-07T15:42:12.400Z,20.35
2023-03-07T15:45:06.203Z,22.50
2023-03-07T15:47:48.200Z,22.13
2023-03-07T15:50:42.208Z,19.45
2023-03-07T15:54:07.193Z,25.58
2023-03-07T15:57:08.212Z,24.13
2023-03-07T16:00:27.195Z,19.67
2023-03-07T16:03:18.418Z,18.50
2023-03-07T16:06:07.210Z,19.50
2023-03-07T16:08:47.196Z,20.08
2023-03-07T16:11:41.207Z,20.13
2023-03-07T16:14:38.210Z,19.80
2023-03-07T16:17:53.090Z,20.17
2023-03-07T16:20:40.208Z,26.30
2023-03-07T16:23:19.339Z,30.30
2023-03-07T16:26:10.198Z,28.02
2023-03-07T16:28:44.254Z,34.17
2023-03-07T16:31:31.351Z,30.70
2023-03-07T16:34:11.195Z,30.45
2023-03-07T16:37:05.196Z,33.10
2023-03-07T16:39:52.206Z,32.38
2023-03-07T16:42:30.687Z,32.15
2023-03-07T16:45:35.258Z,24.65
2023-03-07T16:48:08.305Z,24.88
2023-03-07T16:50:55.209Z,31.55
2023-03-07T16:53:28.373Z,35.30
2023-03-07T16:56:25.233Z,33.45
2023-03-07T16:58:59.359Z,29.67
2023-03-07T17:01:47.256Z,26.85
2023-03-07T17:04:28.200Z,29.92
2023-03-07T17:07:33.211Z,38.28
2023-03-07T17:10:20.217Z,37.75
2023-03-07T17:12:55.082Z,30.50
2023-03-07T17:15:43.275Z,37.45
2023-03-07T17:18:17.395Z,31.77
2023-03-07T17:21:04.230Z,24.25
2023-03-07T17:23:37.366Z,23.58
2023-03-07T17:26:37.204Z,27.88
2023-03-07T17:29:16.324Z,28.17
2023-03-07T17:32:03.333Z,31.48
2023-03-07T17:34:39.433Z,48.17
2023-03-07T17:37:26.245Z,43.70
2023-03-07T17:40:00.585Z,42.33
2023-03-07T17:42:49.236Z,37.60
2023-03-07T17:45:25.337Z,42.88
2023-03-07T17:48:12.259Z,45.42
2023-03-07T17:50:46.390Z,33.70
2023-03-07T17:53:40.209Z,43.20
2023-03-07T17:56:34.239Z,40.25
2023-03-07T17:59:28.235Z,41.78
2023-03-07T18:02:25.246Z,49.08
2023-03-07T18:05:13.227Z,45.63
2023-03-07T18:07:58.242Z,37.00
2023-03-07T18:10:52.235Z,40.15
2023-03-07T18:13:39.262Z,44.53
2023-03-07T18:16:13.378Z,48.25
2023-03-07T18:19:02.900Z,50.15
2023-03-07T18:21:37.388Z,49.28
2023-03-07T18:24:30.350Z,70.13
2023-03-07T18:27:08.651Z,78.03
2023-03-07T18:29:55.304Z,71.00
2023-03-07T18:32:29.301Z,58.30
2023-03-07T18:35:16.252Z,53.53
2023-03-07T18:37:56.251Z,66.15
2023-03-07T18:40:43.290Z,60.15
2023-03-07T18:43:23.290Z,67.10
2023-03-07T18:46:15.339Z,43.55
2023-03-07T18:48:49.354Z,81.95
2023-03-07T18:51:36.251Z,58.40
2023-03-07T18:54:09.571Z,43.97
2023-03-07T18:56:56.249Z,40.55
2023-03-07T18:59:36.262Z,36.55
2023-03-07T19:02:30.316Z,43.03
2023-03-07T19:05:17.239Z,50.15
2023-03-07T19:07:50.372Z,38.72
2023-03-07T19:10:37.238Z,48.40
2023-03-07T19:13:11.517Z,39.78
2023-03-07T19:16:07.322Z,37.20
2023-03-07T19:18:48.289Z,37.05
2023-03-07T19:21:43.264Z,39.58
2023-03-07T19:24:30.254Z,39.17
2023-03-07T19:27:03.357Z,38.00
2023-03-07T19:29:50.263Z,39.17
2023-03-07T19:32:23.513Z,39.85
2023-03-07T19:35:11.276Z,43.50
2023-03-07T19:37:52.308Z,37.80
2023-03-07T19:40:46.284Z,47.60
2023-03-07T19:43:41.393Z,63.47
2023-03-07T19:46:35.272Z,45.90
2023-03-07T19:49:33.267Z,44.58
2023-03-07T19:52:27.288Z,44.67
2023-03-07T19:55:21.312Z,40.70
2023-03-07T19:58:15.275Z,55.50
2023-03-07T20:01:09.369Z,48.65
2023-03-07T20:03:57.280Z,48.33
2023-03-07T20:06:33.429Z,60.63
2023-03-07T20:09:20.270Z,58.38
2023-03-07T20:12:00.280Z,55.67
2023-03-07T20:14:54.260Z,47.90
2023-03-07T20:17:48.295Z,42.25
2023-03-07T20:20:42.273Z,41.00
2023-03-07T20:23:36.295Z,45.38
2023-03-07T20:26:29.298Z,40.20
2023-03-07T20:29:10.262Z,42.75
2023-03-07T20:32:04.382Z,46.13
2023-03-07T20:34:51.284Z,47.08
2023-03-07T20:37:24.399Z,44.05
2023-03-07T20:40:15.329Z,43.28
2023-03-07T20:42:48.403Z,45.85
2023-03-07T20:45:35.309Z,48.40
2023-03-07T20:48:15.282Z,41.83
2023-03-07T20:51:27.320Z,44.35
2023-03-07T20:54:29.296Z,42.45
2023-03-07T20:57:23.319Z,44.65
2023-03-07T21:00:17.319Z,44.15
2023-03-07T21:03:06.206Z,42.03
2023-03-07T21:05:39.472Z,36.53
2023-03-07T21:08:26.304Z,42.17
2023-03-07T21:11:20.434Z,53.17
2023-03-07T21:14:14.319Z,57.80
2023-03-07T21:17:01.430Z,41.80
2023-03-07T21:19:34.922Z,44.92
2023-03-07T21:22:21.705Z,42.17
2023-03-07T21:24:55.549Z,49.13
2023-03-07T21:27:42.401Z,43.63
2023-03-07T21:30:19.752Z,44.28
2023-03-07T21:33:06.401Z,44.75
2023-03-07T21:35:49.499Z,42.15
2023-03-07T21:38:37.359Z,39.88
2023-03-07T21:41:19.345Z,44.65
2023-03-07T21:44:17.304Z,39.08
2023-03-07T21:47:11.607Z,33.58
2023-03-07T21:49:59.638Z,36.15
2023-03-07T21:52:42.331Z,36.50
2023-03-07T21:55:31.338Z,33.90
2023-03-07T21:58:12.466Z,31.77
2023-03-07T22:01:07.355Z,39.88
2023-03-07T22:04:01.381Z,41.53
2023-03-07T22:06:48.322Z,43.45
2023-03-07T22:09:28.331Z,36.67
2023-03-07T22:12:15.324Z,42.22
2023-03-07T22:14:55.328Z,40.00
2023-03-07T22:17:50.320Z,46.70
2023-03-07T22:20:37.313Z,44.95
2023-03-07T22:23:10.430Z,41.13
2023-03-07T22:25:57.311Z,41.08
2023-03-07T22:28:37.336Z,34.15
2023-03-07T22:31:31.361Z,42.65
2023-03-07T22:34:18.329Z,44.95
2023-03-07T22:36:51.503Z,34.85
2023-03-07T22:39:38.334Z,34.97
2023-03-07T22:42:11.438Z,33.00
2023-03-07T22:44:58.326Z,41.13
2023-03-07T22:47:31.479Z,42.13
2023-03-07T22:50:18.356Z,36.90
2023-03-07T22:52:51.469Z,35.45
2023-03-07T22:55:38.348Z,34.13
2023-03-07T22:58:11.422Z,34.08
2023-03-07T23:00:58.360Z,37.60
2023-03-07T23:03:31.542Z,33.22
2023-03-07T23:06:18.370Z,35.30
2023-03-07T23:08:52.497Z,35.75
2023-03-07T23:11:40.354Z,40.00
2023-03-07T23:14:20.353Z,35.95
2023-03-07T23:17:07.348Z,38.28
2023-03-07T23:19:40.518Z,31.48
2023-03-07T23:22:27.360Z,36.95
2023-03-07T23:25:00.463Z,31.42
2023-03-07T23:27:47.376Z,36.42
2023-03-07T23:30:28.349Z,37.25
2023-03-07T23:33:22.366Z,32.08
2023-03-07T23:36:09.365Z,30.17
2023-03-07T23:38:42.469Z,29.50
2023-03-07T23:41:29.361Z,30.10
2023-03-07T23:44:04.447Z,32.00
2023-03-07T23:46:51.391Z,29.98
2023-03-07T23:49:24.550Z,29.52
2023-03-07T23:52:11.427Z,29.55
2023-03-07T23:54:51.467Z,32.55
2023-03-07T23:57:45.342Z,31.42
